sensor_id;sensor_type;location;lat;lon;timestamp;P1;durP1;ratioP1;P2;durP2;ratioP2
40198;SDS011;25906;43.536;26.068;2023-04-01T00:01:49;6.75;;;3.72;;
40198;SDS011;25906;43.536;26.068;2023-04-01T00:04:34;6.53;;;3.20;;
40198;SDS011;25906;43.536;26.068;2023-04-01T00:07:20;5.80;;;3.53;;
40198;SDS011;25906;43.536;26.068;2023-04-01T00:10:06;6.13;;;3.80;;
40198;SDS011;25906;43.536;26.068;2023-04-01T00:12:53;8.30;;;4.13;;
40198;SDS011;25906;43.536;26.068;2023-04-01T00:15:38;9.70;;;3.55;;
40198;SDS011;25906;43.536;26.068;2023-04-01T00:18:24;5.55;;;3.65;;
40198;SDS011;25906;43.536;26.068;2023-04-01T00:23:55;5.07;;;3.75;;
40198;SDS011;25906;43.536;26.068;2023-04-01T00:26:40;5.18;;;3.78;;
40198;SDS011;25906;43.536;26.068;2023-04-01T00:29:27;4.00;;;3.50;;
40198;SDS011;25906;43.536;26.068;2023-04-01T00:32:14;5.50;;;3.85;;
40198;SDS011;25906;43.536;26.068;2023-04-01T00:34:59;5.03;;;4.00;;
40198;SDS011;25906;43.536;26.068;2023-04-01T00:37:45;4.53;;;3.50;;
40198;SDS011;25906;43.536;26.068;2023-04-01T00:40:31;6.63;;;3.78;;
40198;SDS011;25906;43.536;26.068;2023-04-01T00:43:19;6.78;;;3.92;;
40198;SDS011;25906;43.536;26.068;2023-04-01T00:48:51;6.88;;;3.88;;
40198;SDS011;25906;43.536;26.068;2023-04-01T00:51:40;5.85;;;3.83;;
40198;SDS011;25906;43.536;26.068;2023-04-01T00:54:27;5.45;;;3.72;;
40198;SDS011;25906;43.536;26.068;2023-04-01T00:57:25;5.30;;;3.45;;
40198;SDS011;25906;43.536;26.068;2023-04-01T01:00:14;6.60;;;3.95;;
40198;SDS011;25906;43.536;26.068;2023-04-01T01:03:02;6.78;;;4.10;;
40198;SDS011;25906;43.536;26.068;2023-04-01T01:15:26;4.82;;;3.20;;
40198;SDS011;25906;43.536;26.068;2023-04-01T01:18:33;8.88;;;4.22;;
40198;SDS011;25906;43.536;26.068;2023-04-01T01:27:21;3.80;;;3.03;;
40198;SDS011;25906;43.536;26.068;2023-04-01T01:30:22;6.05;;;3.03;;
40198;SDS011;25906;43.536;26.068;2023-04-01T01:33:30;6.45;;;3.65;;
40198;SDS011;25906;43.536;26.068;2023-04-01T01:36:26;5.63;;;3.28;;
40198;SDS011;25906;43.536;26.068;2023-04-01T01:39:16;9.07;;;3.53;;
40198;SDS011;25906;43.536;26.068;2023-04-01T01:42:03;10.45;;;3.60;;
40198;SDS011;25906;43.536;26.068;2023-04-01T01:44:52;4.18;;;3.20;;
40198;SDS011;25906;43.536;26.068;2023-04-01T01:47:41;7.78;;;3.03;;
40198;SDS011;25906;43.536;26.068;2023-04-01T01:50:27;4.72;;;3.40;;
40198;SDS011;25906;43.536;26.068;2023-04-01T01:53:13;4.10;;;3.08;;
40198;SDS011;25906;43.536;26.068;2023-04-01T01:55:59;9.15;;;3.80;;
40198;SDS011;25906;43.536;26.068;2023-04-01T01:58:45;7.22;;;3.22;;
40198;SDS011;25906;43.536;26.068;2023-04-01T02:01:35;5.68;;;3.33;;
40198;SDS011;25906;43.536;26.068;2023-04-01T02:04:25;4.20;;;2.95;;
40198;SDS011;25906;43.536;26.068;2023-04-01T02:07:12;5.93;;;3.50;;
40198;SDS011;25906;43.536;26.068;2023-04-01T02:10:03;5.80;;;3.25;;
40198;SDS011;25906;43.536;26.068;2023-04-01T02:12:49;5.43;;;3.10;;
40198;SDS011;25906;43.536;26.068;2023-04-01T02:15:37;3.90;;;2.85;;
40198;SDS011;25906;43.536;26.068;2023-04-01T02:18:28;5.55;;;3.35;;
40198;SDS011;25906;43.536;26.068;2023-04-01T02:21:14;5.55;;;3.42;;
40198;SDS011;25906;43.536;26.068;2023-04-01T02:24:01;4.63;;;3.45;;
40198;SDS011;25906;43.536;26.068;2023-04-01T02:26:52;4.93;;;3.35;;
40198;SDS011;25906;43.536;26.068;2023-04-01T02:29:38;8.07;;;3.00;;
40198;SDS011;25906;43.536;26.068;2023-04-01T02:32:23;6.10;;;3.85;;
40198;SDS011;25906;43.536;26.068;2023-04-01T02:35:10;5.40;;;3.03;;
40198;SDS011;25906;43.536;26.068;2023-04-01T02:37:58;7.47;;;3.50;;
40198;SDS011;25906;43.536;26.068;2023-04-01T02:40:45;6.68;;;3.58;;
40198;SDS011;25906;43.536;26.068;2023-04-01T02:43:36;8.73;;;3.90;;
40198;SDS011;25906;43.536;26.068;2023-04-01T02:46:21;4.55;;;3.50;;
40198;SDS011;25906;43.536;26.068;2023-04-01T02:49:07;5.70;;;3.33;;
40198;SDS011;25906;43.536;26.068;2023-04-01T02:51:52;6.25;;;3.20;;
40198;SDS011;25906;43.536;26.068;2023-04-01T02:54:38;5.50;;;3.30;;
40198;SDS011;25906;43.536;26.068;2023-04-01T02:57:23;7.47;;;3.42;;
40198;SDS011;25906;43.536;26.068;2023-04-01T03:00:09;6.45;;;3.88;;
40198;SDS011;25906;43.536;26.068;2023-04-01T03:02:56;6.80;;;3.50;;
40198;SDS011;25906;43.536;26.068;2023-04-01T03:05:41;6.30;;;3.60;;
40198;SDS011;25906;43.536;26.068;2023-04-01T03:08:27;6.93;;;3.47;;
40198;SDS011;25906;43.536;26.068;2023-04-01T03:11:12;7.78;;;3.58;;
40198;SDS011;25906;43.536;26.068;2023-04-01T03:16:43;5.55;;;3.40;;
40198;SDS011;25906;43.536;26.068;2023-04-01T03:19:29;5.32;;;3.70;;
40198;SDS011;25906;43.536;26.068;2023-04-01T03:22:14;9.50;;;3.65;;
40198;SDS011;25906;43.536;26.068;2023-04-01T03:25:00;6.07;;;3.83;;
40198;SDS011;25906;43.536;26.068;2023-04-01T03:27:46;5.57;;;3.03;;
40198;SDS011;25906;43.536;26.068;2023-04-01T03:30:31;5.82;;;3.20;;
40198;SDS011;25906;43.536;26.068;2023-04-01T03:33:17;4.53;;;3.38;;
40198;SDS011;25906;43.536;26.068;2023-04-01T03:36:02;4.30;;;3.65;;
40198;SDS011;25906;43.536;26.068;2023-04-01T03:38:51;5.35;;;3.22;;
40198;SDS011;25906;43.536;26.068;2023-04-01T03:41:36;4.88;;;3.65;;
40198;SDS011;25906;43.536;26.068;2023-04-01T03:44:23;7.57;;;3.65;;
40198;SDS011;25906;43.536;26.068;2023-04-01T03:47:08;5.82;;;3.47;;
40198;SDS011;25906;43.536;26.068;2023-04-01T03:49:56;5.88;;;3.53;;
40198;SDS011;25906;43.536;26.068;2023-04-01T03:52:42;6.93;;;3.42;;
40198;SDS011;25906;43.536;26.068;2023-04-01T03:55:27;9.07;;;3.53;;
40198;SDS011;25906;43.536;26.068;2023-04-01T03:58:12;6.43;;;3.40;;
40198;SDS011;25906;43.536;26.068;2023-04-01T04:00:58;6.97;;;3.45;;
40198;SDS011;25906;43.536;26.068;2023-04-01T04:03:43;5.57;;;3.63;;
40198;SDS011;25906;43.536;26.068;2023-04-01T04:06:29;8.98;;;4.03;;
40198;SDS011;25906;43.536;26.068;2023-04-01T04:09:15;6.82;;;3.63;;
40198;SDS011;25906;43.536;26.068;2023-04-01T04:12:01;3.75;;;3.30;;
40198;SDS011;25906;43.536;26.068;2023-04-01T04:14:46;5.95;;;3.80;;
40198;SDS011;25906;43.536;26.068;2023-04-01T04:17:31;7.43;;;3.50;;
40198;SDS011;25906;43.536;26.068;2023-04-01T04:20:17;3.53;;;3.20;;
40198;SDS011;25906;43.536;26.068;2023-04-01T04:23:02;9.00;;;3.70;;
40198;SDS011;25906;43.536;26.068;2023-04-01T04:25:55;5.95;;;3.20;;
40198;SDS011;25906;43.536;26.068;2023-04-01T04:28:42;8.13;;;3.83;;
40198;SDS011;25906;43.536;26.068;2023-04-01T04:31:27;5.10;;;3.30;;
40198;SDS011;25906;43.536;26.068;2023-04-01T04:34:13;9.52;;;3.90;;
40198;SDS011;25906;43.536;26.068;2023-04-01T04:36:58;4.70;;;3.40;;
40198;SDS011;25906;43.536;26.068;2023-04-01T04:39:44;8.07;;;3.97;;
40198;SDS011;25906;43.536;26.068;2023-04-01T04:42:29;5.18;;;3.45;;
40198;SDS011;25906;43.536;26.068;2023-04-01T04:45:15;9.13;;;3.30;;
40198;SDS011;25906;43.536;26.068;2023-04-01T04:48:00;6.80;;;3.35;;
40198;SDS011;25906;43.536;26.068;2023-04-01T04:50:47;5.15;;;3.42;;
40198;SDS011;25906;43.536;26.068;2023-04-01T04:53:34;5.82;;;3.38;;
40198;SDS011;25906;43.536;26.068;2023-04-01T04:56:20;8.45;;;3.75;;
40198;SDS011;25906;43.536;26.068;2023-04-01T04:59:07;6.50;;;3.35;;
40198;SDS011;25906;43.536;26.068;2023-04-01T05:01:52;9.57;;;3.63;;
40198;SDS011;25906;43.536;26.068;2023-04-01T05:04:37;4.78;;;2.97;;
40198;SDS011;25906;43.536;26.068;2023-04-01T05:07:23;11.98;;;5.05;;
40198;SDS011;25906;43.536;26.068;2023-04-01T05:10:08;7.57;;;4.55;;
40198;SDS011;25906;43.536;26.068;2023-04-01T05:12:54;5.95;;;3.78;;
40198;SDS011;25906;43.536;26.068;2023-04-01T05:15:40;6.05;;;4.03;;
40198;SDS011;25906;43.536;26.068;2023-04-01T05:18:25;6.70;;;3.95;;
40198;SDS011;25906;43.536;26.068;2023-04-01T05:21:11;8.55;;;4.10;;
40198;SDS011;25906;43.536;26.068;2023-04-01T05:23:58;8.70;;;3.40;;
40198;SDS011;25906;43.536;26.068;2023-04-01T05:26:43;7.32;;;3.85;;
40198;SDS011;25906;43.536;26.068;2023-04-01T05:29:29;7.78;;;4.03;;
40198;SDS011;25906;43.536;26.068;2023-04-01T05:32:14;4.68;;;3.78;;
40198;SDS011;25906;43.536;26.068;2023-04-01T05:35:00;6.00;;;3.65;;
40198;SDS011;25906;43.536;26.068;2023-04-01T05:37:45;4.95;;;3.00;;
40198;SDS011;25906;43.536;26.068;2023-04-01T05:40:31;4.88;;;3.03;;
40198;SDS011;25906;43.536;26.068;2023-04-01T05:46:02;8.10;;;3.17;;
40198;SDS011;25906;43.536;26.068;2023-04-01T05:48:48;6.45;;;2.97;;
40198;SDS011;25906;43.536;26.068;2023-04-01T05:51:33;6.45;;;2.83;;
40198;SDS011;25906;43.536;26.068;2023-04-01T05:54:19;4.75;;;2.72;;
40198;SDS011;25906;43.536;26.068;2023-04-01T05:57:05;9.00;;;3.15;;
40198;SDS011;25906;43.536;26.068;2023-04-01T05:59:50;5.15;;;3.38;;
40198;SDS011;25906;43.536;26.068;2023-04-01T06:02:35;5.28;;;2.53;;
40198;SDS011;25906;43.536;26.068;2023-04-01T06:05:23;5.32;;;3.13;;
40198;SDS011;25906;43.536;26.068;2023-04-01T06:08:13;5.63;;;3.25;;
40198;SDS011;25906;43.536;26.068;2023-04-01T06:11:03;5.82;;;3.35;;
40198;SDS011;25906;43.536;26.068;2023-04-01T06:17:14;8.68;;;4.75;;
40198;SDS011;25906;43.536;26.068;2023-04-01T06:20:12;11.85;;;4.38;;
40198;SDS011;25906;43.536;26.068;2023-04-01T06:26:16;11.00;;;3.83;;
40198;SDS011;25906;43.536;26.068;2023-04-01T06:56:56;9.50;;;6.00;;
40198;SDS011;25906;43.536;26.068;2023-04-01T06:59:45;11.40;;;4.55;;
40198;SDS011;25906;43.536;26.068;2023-04-01T07:02:43;12.60;;;4.60;;
40198;SDS011;25906;43.536;26.068;2023-04-01T07:05:40;13.20;;;5.30;;
40198;SDS011;25906;43.536;26.068;2023-04-01T07:08:27;14.73;;;7.05;;
40198;SDS011;25906;43.536;26.068;2023-04-01T07:11:25;13.60;;;7.30;;
40198;SDS011;25906;43.536;26.068;2023-04-01T07:14:22;9.07;;;4.60;;
40198;SDS011;25906;43.536;26.068;2023-04-01T07:17:27;12.73;;;5.68;;
40198;SDS011;25906;43.536;26.068;2023-04-01T07:23:10;21.77;;;8.73;;
40198;SDS011;25906;43.536;26.068;2023-04-01T07:26:22;18.83;;;8.70;;
40198;SDS011;25906;43.536;26.068;2023-04-01T07:29:09;18.60;;;8.32;;
40198;SDS011;25906;43.536;26.068;2023-04-01T07:35:21;20.10;;;8.93;;
40198;SDS011;25906;43.536;26.068;2023-04-01T07:38:30;24.23;;;7.63;;
40198;SDS011;25906;43.536;26.068;2023-04-01T07:41:41;15.25;;;6.82;;
40198;SDS011;25906;43.536;26.068;2023-04-01T07:48:02;17.92;;;8.70;;
40198;SDS011;25906;43.536;26.068;2023-04-01T08:18:58;10.95;;;4.68;;
40198;SDS011;25906;43.536;26.068;2023-04-01T08:21:51;8.10;;;3.70;;
40198;SDS011;25906;43.536;26.068;2023-04-01T08:24:42;7.63;;;4.13;;
40198;SDS011;25906;43.536;26.068;2023-04-01T08:27:41;5.82;;;3.53;;
40198;SDS011;25906;43.536;26.068;2023-04-01T08:33:26;7.13;;;3.42;;
40198;SDS011;25906;43.536;26.068;2023-04-01T08:36:19;8.55;;;3.20;;
40198;SDS011;25906;43.536;26.068;2023-04-01T08:39:18;7.18;;;3.28;;
40198;SDS011;25906;43.536;26.068;2023-04-01T09:00:46;5.35;;;2.70;;
40198;SDS011;25906;43.536;26.068;2023-04-01T09:06:40;6.45;;;2.47;;
40198;SDS011;25906;43.536;26.068;2023-04-01T09:12:38;18.92;;;1.95;;
40198;SDS011;25906;43.536;26.068;2023-04-01T09:21:36;6.00;;;2.05;;
40198;SDS011;25906;43.536;26.068;2023-04-01T09:24:46;4.80;;;2.00;;
40198;SDS011;25906;43.536;26.068;2023-04-01T09:39:38;5.60;;;1.92;;
40198;SDS011;25906;43.536;26.068;2023-04-01T09:54:49;10.25;;;2.20;;
40198;SDS011;25906;43.536;26.068;2023-04-01T10:29:40;3.85;;;1.77;;
40198;SDS011;25906;43.536;26.068;2023-04-01T10:36:07;5.30;;;2.00;;
40198;SDS011;25906;43.536;26.068;2023-04-01T11:10:25;5.20;;;1.60;;
40198;SDS011;25906;43.536;26.068;2023-04-01T11:20:02;6.50;;;2.20;;
40198;SDS011;25906;43.536;26.068;2023-04-01T11:35:55;8.25;;;2.22;;
40198;SDS011;25906;43.536;26.068;2023-04-01T12:07:41;7.15;;;2.40;;
40198;SDS011;25906;43.536;26.068;2023-04-01T12:23:34;8.65;;;2.35;;
40198;SDS011;25906;43.536;26.068;2023-04-01T12:33:26;7.05;;;2.88;;
40198;SDS011;25906;43.536;26.068;2023-04-01T12:36:23;7.13;;;2.78;;
40198;SDS011;25906;43.536;26.068;2023-04-01T13:01:30;9.75;;;2.72;;
40198;SDS011;25906;43.536;26.068;2023-04-01T13:16:57;7.10;;;2.17;;
40198;SDS011;25906;43.536;26.068;2023-04-01T13:29:21;5.82;;;2.00;;
40198;SDS011;25906;43.536;26.068;2023-04-01T13:32:13;5.63;;;2.58;;
40198;SDS011;25906;43.536;26.068;2023-04-01T13:44:02;4.05;;;2.40;;
40198;SDS011;25906;43.536;26.068;2023-04-01T13:47:06;9.65;;;2.60;;
40198;SDS011;25906;43.536;26.068;2023-04-01T14:15:23;4.25;;;2.08;;
40198;SDS011;25906;43.536;26.068;2023-04-01T14:43:22;27.45;;;10.88;;
40198;SDS011;25906;43.536;26.068;2023-04-01T14:49:42;48.42;;;16.85;;
40198;SDS011;25906;43.536;26.068;2023-04-01T14:52:31;8.18;;;4.97;;
40198;SDS011;25906;43.536;26.068;2023-04-01T14:56:03;12.02;;;6.00;;
40198;SDS011;25906;43.536;26.068;2023-04-01T14:58:44;11.35;;;4.30;;
40198;SDS011;25906;43.536;26.068;2023-04-01T15:01:35;8.66;;;5.02;;
40198;SDS011;25906;43.536;26.068;2023-04-01T15:07:47;5.50;;;3.30;;
40198;SDS011;25906;43.536;26.068;2023-04-01T15:16:49;8.13;;;3.42;;
40198;SDS011;25906;43.536;26.068;2023-04-01T15:19:54;10.65;;;3.95;;
40198;SDS011;25906;43.536;26.068;2023-04-01T15:26:12;7.82;;;5.13;;
40198;SDS011;25906;43.536;26.068;2023-04-01T15:29:33;8.80;;;5.05;;
40198;SDS011;25906;43.536;26.068;2023-04-01T15:38:56;13.18;;;7.47;;
40198;SDS011;25906;43.536;26.068;2023-04-01T15:48:24;19.88;;;9.75;;
40198;SDS011;25906;43.536;26.068;2023-04-01T15:51:38;12.80;;;7.85;;
40198;SDS011;25906;43.536;26.068;2023-04-01T16:12:41;17.50;;;10.13;;
40198;SDS011;25906;43.536;26.068;2023-04-01T16:15:49;22.85;;;10.93;;
40198;SDS011;25906;43.536;26.068;2023-04-01T16:21:35;17.67;;;9.77;;
40198;SDS011;25906;43.536;26.068;2023-04-01T16:24:32;14.20;;;8.68;;
40198;SDS011;25906;43.536;26.068;2023-04-01T16:36:45;9.32;;;5.28;;
40198;SDS011;25906;43.536;26.068;2023-04-01T16:43:10;14.77;;;5.78;;
40198;SDS011;25906;43.536;26.068;2023-04-01T16:49:17;17.17;;;6.72;;
40198;SDS011;25906;43.536;26.068;2023-04-01T16:55:14;8.38;;;4.45;;
40198;SDS011;25906;43.536;26.068;2023-04-01T17:00:48;8.57;;;4.85;;
40198;SDS011;25906;43.536;26.068;2023-04-01T17:03:38;9.10;;;5.03;;
40198;SDS011;25906;43.536;26.068;2023-04-01T17:10:02;19.60;;;5.45;;
40198;SDS011;25906;43.536;26.068;2023-04-01T17:16:36;9.55;;;4.28;;
40198;SDS011;25906;43.536;26.068;2023-04-01T17:40:00;10.10;;;5.10;;
40198;SDS011;25906;43.536;26.068;2023-04-01T17:45:21;10.07;;;5.75;;
40198;SDS011;25906;43.536;26.068;2023-04-01T18:00:36;13.00;;;7.50;;
40198;SDS011;25906;43.536;26.068;2023-04-01T18:28:22;14.93;;;8.77;;
40198;SDS011;25906;43.536;26.068;2023-04-01T18:31:20;15.80;;;8.88;;
40198;SDS011;25906;43.536;26.068;2023-04-01T18:34:30;12.25;;;6.88;;
40198;SDS011;25906;43.536;26.068;2023-04-01T18:40:20;14.75;;;7.45;;
40198;SDS011;25906;43.536;26.068;2023-04-01T18:46:26;20.42;;;10.75;;
40198;SDS011;25906;43.536;26.068;2023-04-01T18:52:45;18.33;;;9.88;;
40198;SDS011;25906;43.536;26.068;2023-04-01T18:58:33;16.70;;;8.98;;
40198;SDS011;25906;43.536;26.068;2023-04-01T19:07:45;19.20;;;10.15;;
40198;SDS011;25906;43.536;26.068;2023-04-01T19:25:56;13.93;;;7.63;;
40198;SDS011;25906;43.536;26.068;2023-04-01T19:29:05;14.07;;;7.55;;
40198;SDS011;25906;43.536;26.068;2023-04-01T19:35:29;10.75;;;7.45;;
40198;SDS011;25906;43.536;26.068;2023-04-01T19:48:36;17.63;;;8.90;;
40198;SDS011;25906;43.536;26.068;2023-04-01T20:06:28;10.30;;;6.60;;
40198;SDS011;25906;43.536;26.068;2023-04-01T20:12:25;11.23;;;6.22;;
40198;SDS011;25906;43.536;26.068;2023-04-01T20:15:21;8.63;;;5.53;;
40198;SDS011;25906;43.536;26.068;2023-04-01T20:18:16;9.52;;;4.63;;
40198;SDS011;25906;43.536;26.068;2023-04-01T20:21:28;8.88;;;4.68;;
40198;SDS011;25906;43.536;26.068;2023-04-01T20:24:20;7.90;;;5.20;;
40198;SDS011;25906;43.536;26.068;2023-04-01T20:27:17;6.80;;;4.40;;
40198;SDS011;25906;43.536;26.068;2023-04-01T20:30:29;3.90;;;2.80;;
40198;SDS011;25906;43.536;26.068;2023-04-01T20:48:48;1.38;;;1.13;;
40198;SDS011;25906;43.536;26.068;2023-04-01T20:51:53;1.83;;;1.10;;
40198;SDS011;25906;43.536;26.068;2023-04-01T21:01:14;1.13;;;1.02;;
40198;SDS011;25906;43.536;26.068;2023-04-01T21:04:25;3.63;;;1.00;;
40198;SDS011;25906;43.536;26.068;2023-04-01T21:10:18;5.97;;;1.27;;
40198;SDS011;25906;43.536;26.068;2023-04-01T21:38:34;1.20;;;0.93;;
40198;SDS011;25906;43.536;26.068;2023-04-01T21:50:54;1.85;;;1.52;;
40198;SDS011;25906;43.536;26.068;2023-04-01T22:15:00;5.15;;;4.00;;
40198;SDS011;25906;43.536;26.068;2023-04-01T22:27:21;3.25;;;2.85;;
40198;SDS011;25906;43.536;26.068;2023-04-01T22:30:11;4.25;;;2.78;;
40198;SDS011;25906;43.536;26.068;2023-04-01T22:33:08;3.60;;;2.60;;
40198;SDS011;25906;43.536;26.068;2023-04-01T22:39:19;6.35;;;3.15;;
40198;SDS011;25906;43.536;26.068;2023-04-01T22:45:29;5.80;;;4.35;;
40198;SDS011;25906;43.536;26.068;2023-04-01T22:51:20;5.75;;;3.72;;
40198;SDS011;25906;43.536;26.068;2023-04-01T22:54:18;4.72;;;3.70;;
40198;SDS011;25906;43.536;26.068;2023-04-01T22:57:08;8.32;;;4.55;;
40198;SDS011;25906;43.536;26.068;2023-04-01T22:59:58;3.33;;;2.90;;
40198;SDS011;25906;43.536;26.068;2023-04-01T23:02:47;3.17;;;2.70;;
40198;SDS011;25906;43.536;26.068;2023-04-01T23:05:33;2.22;;;2.05;;
40198;SDS011;25906;43.536;26.068;2023-04-01T23:14:46;2.67;;;1.70;;
40198;SDS011;25906;43.536;26.068;2023-04-01T23:23:43;4.15;;;2.08;;
40198;SDS011;25906;43.536;26.068;2023-04-01T23:29:24;3.08;;;2.00;;
40198;SDS011;25906;43.536;26.068;2023-04-01T23:32:18;2.58;;;2.05;;
40198;SDS011;25906;43.536;26.068;2023-04-01T23:35:11;2.80;;;2.15;;
40198;SDS011;25906;43.536;26.068;2023-04-01T23:38:01;2.10;;;1.90;;
40198;SDS011;25906;43.536;26.068;2023-04-01T23:40:47;2.42;;;2.00;;
40198;SDS011;25906;43.536;26.068;2023-04-01T23:43:38;1.90;;;1.60;;
40198;SDS011;25906;43.536;26.068;2023-04-01T23:46:25;2.05;;;1.67;;
40198;SDS011;25906;43.536;26.068;2023-04-01T23:49:13;3.17;;;1.75;;
40198;SDS011;25906;43.536;26.068;2023-04-01T23:52:10;2.35;;;1.85;;
